sensor_id;sensor_type;location;lat;lon;timestamp;temperature;humidity
24217;DHT22;12356;49.386;8.688;2023-10-09T00:01:44;15.90;42.00
24217;DHT22;12356;49.386;8.688;2023-10-09T00:04:17;15.90;42.00
24217;DHT22;12356;49.386;8.688;2023-10-09T00:06:47;15.90;42.10
24217;DHT22;12356;49.386;8.688;2023-10-09T00:09:18;15.90;41.70
24217;DHT22;12356;49.386;8.688;2023-10-09T00:11:55;15.90;41.50
24217;DHT22;12356;49.386;8.688;2023-10-09T00:14:30;15.90;41.60
24217;DHT22;12356;49.386;8.688;2023-10-09T00:17:04;15.90;41.30
24217;DHT22;12356;49.386;8.688;2023-10-09T00:19:41;15.90;41.30
24217;DHT22;12356;49.386;8.688;2023-10-09T00:22:14;15.90;41.50
24217;DHT22;12356;49.386;8.688;2023-10-09T00:24:55;15.90;41.80
24217;DHT22;12356;49.386;8.688;2023-10-09T00:27:43;15.90;41.20
24217;DHT22;12356;49.386;8.688;2023-10-09T00:30:15;15.90;41.30
24217;DHT22;12356;49.386;8.688;2023-10-09T00:32:49;15.90;41.30
24217;DHT22;12356;49.386;8.688;2023-10-09T00:35:23;15.80;41.40
24217;DHT22;12356;49.386;8.688;2023-10-09T00:38:12;15.80;41.40
24217;DHT22;12356;49.386;8.688;2023-10-09T00:40:53;15.80;41.30
24217;DHT22;12356;49.386;8.688;2023-10-09T00:43:38;15.80;41.50
24217;DHT22;12356;49.386;8.688;2023-10-09T00:46:13;15.90;41.40
24217;DHT22;12356;49.386;8.688;2023-10-09T00:48:52;15.90;41.40
24217;DHT22;12356;49.386;8.688;2023-10-09T00:51:24;15.80;41.60
24217;DHT22;12356;49.386;8.688;2023-10-09T00:53:57;15.80;41.60
24217;DHT22;12356;49.386;8.688;2023-10-09T00:56:37;15.80;42.00
24217;DHT22;12356;49.386;8.688;2023-10-09T00:59:13;15.80;42.40
24217;DHT22;12356;49.386;8.688;2023-10-09T01:01:50;15.80;41.90
24217;DHT22;12356;49.386;8.688;2023-10-09T01:04:26;15.80;42.00
24217;DHT22;12356;49.386;8.688;2023-10-09T01:06:59;15.80;41.50
24217;DHT22;12356;49.386;8.688;2023-10-09T01:09:56;15.80;42.30
24217;DHT22;12356;49.386;8.688;2023-10-09T01:12:26;15.80;42.50
24217;DHT22;12356;49.386;8.688;2023-10-09T01:14:59;15.90;42.60
24217;DHT22;12356;49.386;8.688;2023-10-09T01:17:30;15.90;42.40
24217;DHT22;12356;49.386;8.688;2023-10-09T01:20:22;15.90;42.40
24217;DHT22;12356;49.386;8.688;2023-10-09T01:23:01;15.90;42.00
24217;DHT22;12356;49.386;8.688;2023-10-09T01:25:31;15.90;42.10
24217;DHT22;12356;49.386;8.688;2023-10-09T01:28:12;15.90;42.00
24217;DHT22;12356;49.386;8.688;2023-10-09T01:30:46;16.00;42.30
24217;DHT22;12356;49.386;8.688;2023-10-09T01:33:17;16.00;41.50
24217;DHT22;12356;49.386;8.688;2023-10-09T01:35:52;16.10;41.50
24217;DHT22;12356;49.386;8.688;2023-10-09T01:38:26;16.10;41.90
24217;DHT22;12356;49.386;8.688;2023-10-09T01:41:02;16.20;41.40
24217;DHT22;12356;49.386;8.688;2023-10-09T01:43:39;16.10;41.40
24217;DHT22;12356;49.386;8.688;2023-10-09T01:46:09;16.20;42.00
24217;DHT22;12356;49.386;8.688;2023-10-09T01:48:41;16.20;41.70
24217;DHT22;12356;49.386;8.688;2023-10-09T01:51:16;16.20;41.10
24217;DHT22;12356;49.386;8.688;2023-10-09T01:53:47;16.30;40.40
24217;DHT22;12356;49.386;8.688;2023-10-09T01:56:27;16.30;40.50
24217;DHT22;12356;49.386;8.688;2023-10-09T01:58:58;16.30;40.40
24217;DHT22;12356;49.386;8.688;2023-10-09T02:01:36;16.30;40.20
24217;DHT22;12356;49.386;8.688;2023-10-09T02:04:11;16.30;40.30
24217;DHT22;12356;49.386;8.688;2023-10-09T02:06:44;16.30;38.50
24217;DHT22;12356;49.386;8.688;2023-10-09T02:09:15;16.30;37.30
24217;DHT22;12356;49.386;8.688;2023-10-09T02:11:52;16.40;36.10
24217;DHT22;12356;49.386;8.688;2023-10-09T02:14:23;16.40;34.70
24217;DHT22;12356;49.386;8.688;2023-10-09T02:16:54;16.50;33.70
24217;DHT22;12356;49.386;8.688;2023-10-09T02:19:39;16.50;32.50
24217;DHT22;12356;49.386;8.688;2023-10-09T02:22:13;16.60;32.90
24217;DHT22;12356;49.386;8.688;2023-10-09T02:24:44;16.60;33.00
24217;DHT22;12356;49.386;8.688;2023-10-09T02:27:19;16.60;33.50
24217;DHT22;12356;49.386;8.688;2023-10-09T02:30:09;16.60;31.70
24217;DHT22;12356;49.386;8.688;2023-10-09T02:32:58;16.60;29.80
24217;DHT22;12356;49.386;8.688;2023-10-09T02:35:39;16.70;29.70
24217;DHT22;12356;49.386;8.688;2023-10-09T02:38:12;16.70;29.00
24217;DHT22;12356;49.386;8.688;2023-10-09T02:40:45;16.70;27.70
24217;DHT22;12356;49.386;8.688;2023-10-09T02:43:34;16.80;27.60
24217;DHT22;12356;49.386;8.688;2023-10-09T02:46:16;16.80;26.90
24217;DHT22;12356;49.386;8.688;2023-10-09T02:48:50;16.80;26.50
24217;DHT22;12356;49.386;8.688;2023-10-09T02:51:22;16.80;26.70
24217;DHT22;12356;49.386;8.688;2023-10-09T02:54:01;16.90;26.60
24217;DHT22;12356;49.386;8.688;2023-10-09T02:56:38;16.90;26.80
24217;DHT22;12356;49.386;8.688;2023-10-09T02:59:14;16.90;27.10
24217;DHT22;12356;49.386;8.688;2023-10-09T03:01:44;16.90;26.90
24217;DHT22;12356;49.386;8.688;2023-10-09T03:04:15;16.90;27.20
24217;DHT22;12356;49.386;8.688;2023-10-09T03:06:45;16.90;27.10
24217;DHT22;12356;49.386;8.688;2023-10-09T03:09:20;16.90;26.90
24217;DHT22;12356;49.386;8.688;2023-10-09T03:11:59;16.90;26.20
24217;DHT22;12356;49.386;8.688;2023-10-09T03:14:35;16.90;25.60
24217;DHT22;12356;49.386;8.688;2023-10-09T03:17:08;16.90;25.70
24217;DHT22;12356;49.386;8.688;2023-10-09T03:19:41;16.90;25.60
24217;DHT22;12356;49.386;8.688;2023-10-09T03:22:13;16.90;24.90
24217;DHT22;12356;49.386;8.688;2023-10-09T03:24:44;16.90;25.10
24217;DHT22;12356;49.386;8.688;2023-10-09T03:27:19;17.00;24.20
24217;DHT22;12356;49.386;8.688;2023-10-09T03:29:50;17.00;23.80
24217;DHT22;12356;49.386;8.688;2023-10-09T03:32:24;17.00;23.90
24217;DHT22;12356;49.386;8.688;2023-10-09T03:34:54;17.00;23.70
24217;DHT22;12356;49.386;8.688;2023-10-09T03:37:25;17.10;24.90
24217;DHT22;12356;49.386;8.688;2023-10-09T03:40:05;17.00;25.10
24217;DHT22;12356;49.386;8.688;2023-10-09T03:42:38;17.00;25.20
24217;DHT22;12356;49.386;8.688;2023-10-09T03:45:08;16.90;25.30
24217;DHT22;12356;49.386;8.688;2023-10-09T03:47:49;16.90;25.70
24217;DHT22;12356;49.386;8.688;2023-10-09T03:50:20;16.80;26.10
24217;DHT22;12356;49.386;8.688;2023-10-09T03:53:06;16.80;26.80
24217;DHT22;12356;49.386;8.688;2023-10-09T03:55:39;16.70;26.90
24217;DHT22;12356;49.386;8.688;2023-10-09T03:58:10;16.60;27.20
24217;DHT22;12356;49.386;8.688;2023-10-09T04:00:45;16.60;27.20
24217;DHT22;12356;49.386;8.688;2023-10-09T04:03:15;16.60;27.00
24217;DHT22;12356;49.386;8.688;2023-10-09T04:05:46;16.60;27.20
24217;DHT22;12356;49.386;8.688;2023-10-09T04:08:16;16.60;27.30
24217;DHT22;12356;49.386;8.688;2023-10-09T04:10:59;16.60;27.70
24217;DHT22;12356;49.386;8.688;2023-10-09T04:13:34;16.50;28.10
24217;DHT22;12356;49.386;8.688;2023-10-09T04:16:05;16.50;28.70
24217;DHT22;12356;49.386;8.688;2023-10-09T04:19:02;16.50;28.90
24217;DHT22;12356;49.386;8.688;2023-10-09T04:21:38;16.50;28.70
24217;DHT22;12356;49.386;8.688;2023-10-09T04:24:12;16.50;28.70
24217;DHT22;12356;49.386;8.688;2023-10-09T04:26:44;16.40;29.50
24217;DHT22;12356;49.386;8.688;2023-10-09T04:29:15;16.40;29.50
24217;DHT22;12356;49.386;8.688;2023-10-09T04:31:57;16.40;29.20
24217;DHT22;12356;49.386;8.688;2023-10-09T04:34:30;16.40;29.20
24217;DHT22;12356;49.386;8.688;2023-10-09T04:37:08;16.50;28.40
24217;DHT22;12356;49.386;8.688;2023-10-09T04:39:44;16.40;28.90
24217;DHT22;12356;49.386;8.688;2023-10-09T04:42:18;16.50;29.10
24217;DHT22;12356;49.386;8.688;2023-10-09T04:45:09;16.50;28.70
24217;DHT22;12356;49.386;8.688;2023-10-09T04:47:39;16.60;28.70
24217;DHT22;12356;49.386;8.688;2023-10-09T04:50:19;16.60;29.10
24217;DHT22;12356;49.386;8.688;2023-10-09T04:53:02;16.60;28.90
24217;DHT22;12356;49.386;8.688;2023-10-09T04:55:45;16.60;28.90
24217;DHT22;12356;49.386;8.688;2023-10-09T04:58:25;16.60;28.60
24217;DHT22;12356;49.386;8.688;2023-10-09T05:00:56;16.50;28.60
24217;DHT22;12356;49.386;8.688;2023-10-09T05:03:29;16.50;28.40
24217;DHT22;12356;49.386;8.688;2023-10-09T05:06:09;16.60;28.40
24217;DHT22;12356;49.386;8.688;2023-10-09T05:08:52;16.60;28.10
24217;DHT22;12356;49.386;8.688;2023-10-09T05:11:25;16.60;28.10
24217;DHT22;12356;49.386;8.688;2023-10-09T05:14:14;16.60;28.30
24217;DHT22;12356;49.386;8.688;2023-10-09T05:16:44;16.60;28.20
24217;DHT22;12356;49.386;8.688;2023-10-09T05:19:24;16.60;28.20
24217;DHT22;12356;49.386;8.688;2023-10-09T05:22:25;16.60;28.30
24217;DHT22;12356;49.386;8.688;2023-10-09T05:25:07;16.60;28.60
24217;DHT22;12356;49.386;8.688;2023-10-09T05:27:45;16.60;29.70
24217;DHT22;12356;49.386;8.688;2023-10-09T05:30:16;16.60;29.60
24217;DHT22;12356;49.386;8.688;2023-10-09T05:32:57;16.50;29.40
24217;DHT22;12356;49.386;8.688;2023-10-09T05:35:28;16.50;29.60
24217;DHT22;12356;49.386;8.688;2023-10-09T05:38:11;16.50;29.70
24217;DHT22;12356;49.386;8.688;2023-10-09T05:40:54;16.50;29.60
24217;DHT22;12356;49.386;8.688;2023-10-09T05:43:35;16.50;30.00
24217;DHT22;12356;49.386;8.688;2023-10-09T05:46:24;16.50;30.60
24217;DHT22;12356;49.386;8.688;2023-10-09T05:49:05;16.50;30.60
24217;DHT22;12356;49.386;8.688;2023-10-09T05:51:50;16.50;31.00
24217;DHT22;12356;49.386;8.688;2023-10-09T05:54:23;16.50;30.80
24217;DHT22;12356;49.386;8.688;2023-10-09T05:57:14;16.50;30.40
24217;DHT22;12356;49.386;8.688;2023-10-09T06:00:24;16.50;29.60
24217;DHT22;12356;49.386;8.688;2023-10-09T06:03:13;16.50;29.60
24217;DHT22;12356;49.386;8.688;2023-10-09T06:05:56;16.60;28.80
24217;DHT22;12356;49.386;8.688;2023-10-09T06:08:29;16.60;28.10
24217;DHT22;12356;49.386;8.688;2023-10-09T06:11:13;16.60;28.50
24217;DHT22;12356;49.386;8.688;2023-10-09T06:14:02;16.70;28.30
24217;DHT22;12356;49.386;8.688;2023-10-09T06:16:38;16.70;28.80
24217;DHT22;12356;49.386;8.688;2023-10-09T06:19:10;16.70;28.40
24217;DHT22;12356;49.386;8.688;2023-10-09T06:21:57;16.70;28.30
24217;DHT22;12356;49.386;8.688;2023-10-09T06:24:47;16.80;27.50
24217;DHT22;12356;49.386;8.688;2023-10-09T06:27:23;16.70;28.70
24217;DHT22;12356;49.386;8.688;2023-10-09T06:30:00;16.70;28.60
24217;DHT22;12356;49.386;8.688;2023-10-09T06:32:42;16.70;27.60
24217;DHT22;12356;49.386;8.688;2023-10-09T06:35:35;16.70;25.40
24217;DHT22;12356;49.386;8.688;2023-10-09T06:38:06;16.80;24.40
24217;DHT22;12356;49.386;8.688;2023-10-09T06:40:52;16.80;24.30
24217;DHT22;12356;49.386;8.688;2023-10-09T06:43:24;16.80;24.00
24217;DHT22;12356;49.386;8.688;2023-10-09T06:45:58;16.80;24.40
24217;DHT22;12356;49.386;8.688;2023-10-09T06:48:48;16.80;23.20
24217;DHT22;12356;49.386;8.688;2023-10-09T06:51:27;16.90;22.90
24217;DHT22;12356;49.386;8.688;2023-10-09T06:53:59;16.90;22.40
24217;DHT22;12356;49.386;8.688;2023-10-09T06:56:34;16.90;23.10
24217;DHT22;12356;49.386;8.688;2023-10-09T06:59:05;16.90;23.00
24217;DHT22;12356;49.386;8.688;2023-10-09T07:01:52;16.90;22.70
24217;DHT22;12356;49.386;8.688;2023-10-09T07:04:41;16.90;22.60
24217;DHT22;12356;49.386;8.688;2023-10-09T07:07:11;16.90;21.50
24217;DHT22;12356;49.386;8.688;2023-10-09T07:09:45;16.90;20.80
24217;DHT22;12356;49.386;8.688;2023-10-09T07:12:35;17.00;21.70
24217;DHT22;12356;49.386;8.688;2023-10-09T07:15:13;17.00;21.60
24217;DHT22;12356;49.386;8.688;2023-10-09T07:18:12;17.10;21.30
24217;DHT22;12356;49.386;8.688;2023-10-09T07:20:53;17.10;21.20
24217;DHT22;12356;49.386;8.688;2023-10-09T07:23:30;17.10;21.70
24217;DHT22;12356;49.386;8.688;2023-10-09T07:26:04;17.10;21.40
24217;DHT22;12356;49.386;8.688;2023-10-09T07:28:48;17.10;20.90
24217;DHT22;12356;49.386;8.688;2023-10-09T07:31:20;17.10;20.70
24217;DHT22;12356;49.386;8.688;2023-10-09T07:33:57;17.10;19.90
24217;DHT22;12356;49.386;8.688;2023-10-09T07:36:28;17.20;20.60
24217;DHT22;12356;49.386;8.688;2023-10-09T07:39:05;17.20;20.80
24217;DHT22;12356;49.386;8.688;2023-10-09T07:41:47;17.20;20.50
24217;DHT22;12356;49.386;8.688;2023-10-09T07:44:26;17.20;20.80
24217;DHT22;12356;49.386;8.688;2023-10-09T07:47:10;17.20;21.00
24217;DHT22;12356;49.386;8.688;2023-10-09T07:49:59;17.20;20.20
24217;DHT22;12356;49.386;8.688;2023-10-09T07:52:31;17.30;20.30
24217;DHT22;12356;49.386;8.688;2023-10-09T07:55:02;17.30;20.40
24217;DHT22;12356;49.386;8.688;2023-10-09T07:57:36;17.30;19.90
24217;DHT22;12356;49.386;8.688;2023-10-09T08:00:09;17.40;20.40
24217;DHT22;12356;49.386;8.688;2023-10-09T08:03:03;17.40;21.10
24217;DHT22;12356;49.386;8.688;2023-10-09T08:05:42;17.40;20.10
24217;DHT22;12356;49.386;8.688;2023-10-09T08:08:15;17.50;20.80
24217;DHT22;12356;49.386;8.688;2023-10-09T08:11:03;17.50;20.50
24217;DHT22;12356;49.386;8.688;2023-10-09T08:13:52;17.50;19.80
24217;DHT22;12356;49.386;8.688;2023-10-09T08:16:26;17.50;19.40
24217;DHT22;12356;49.386;8.688;2023-10-09T08:19:06;17.60;19.70
24217;DHT22;12356;49.386;8.688;2023-10-09T08:22:00;17.50;19.60
24217;DHT22;12356;49.386;8.688;2023-10-09T08:24:49;17.50;19.40
24217;DHT22;12356;49.386;8.688;2023-10-09T08:27:27;17.60;19.60
24217;DHT22;12356;49.386;8.688;2023-10-09T08:30:04;17.60;20.40
24217;DHT22;12356;49.386;8.688;2023-10-09T08:32:48;17.60;20.60
24217;DHT22;12356;49.386;8.688;2023-10-09T08:35:33;17.60;20.50
24217;DHT22;12356;49.386;8.688;2023-10-09T08:38:04;17.70;20.50
24217;DHT22;12356;49.386;8.688;2023-10-09T08:40:41;17.70;20.50
24217;DHT22;12356;49.386;8.688;2023-10-09T08:43:13;17.70;20.20
24217;DHT22;12356;49.386;8.688;2023-10-09T08:45:46;17.80;20.50
24217;DHT22;12356;49.386;8.688;2023-10-09T08:48:17;17.80;19.10
24217;DHT22;12356;49.386;8.688;2023-10-09T08:50:49;17.80;18.80
24217;DHT22;12356;49.386;8.688;2023-10-09T08:53:21;17.90;19.10
24217;DHT22;12356;49.386;8.688;2023-10-09T08:55:51;17.90;19.70
24217;DHT22;12356;49.386;8.688;2023-10-09T08:58:24;17.90;19.50
24217;DHT22;12356;49.386;8.688;2023-10-09T09:01:03;18.00;19.20
24217;DHT22;12356;49.386;8.688;2023-10-09T09:03:41;18.10;19.60
24217;DHT22;12356;49.386;8.688;2023-10-09T09:06:14;18.10;18.90
24217;DHT22;12356;49.386;8.688;2023-10-09T09:08:49;18.10;17.60
24217;DHT22;12356;49.386;8.688;2023-10-09T09:11:20;18.20;18.60
24217;DHT22;12356;49.386;8.688;2023-10-09T09:16:25;18.20;18.20
24217;DHT22;12356;49.386;8.688;2023-10-09T09:19:06;18.20;18.60
24217;DHT22;12356;49.386;8.688;2023-10-09T09:21:41;18.30;19.10
24217;DHT22;12356;49.386;8.688;2023-10-09T09:24:13;18.40;20.00
24217;DHT22;12356;49.386;8.688;2023-10-09T09:26:54;18.30;19.30
24217;DHT22;12356;49.386;8.688;2023-10-09T09:29:46;18.40;18.80
24217;DHT22;12356;49.386;8.688;2023-10-09T09:32:28;18.40;19.30
24217;DHT22;12356;49.386;8.688;2023-10-09T09:35:12;18.40;19.30
24217;DHT22;12356;49.386;8.688;2023-10-09T09:37:53;18.40;19.70
24217;DHT22;12356;49.386;8.688;2023-10-09T09:40:25;18.40;20.20
24217;DHT22;12356;49.386;8.688;2023-10-09T09:43:02;18.40;19.70
24217;DHT22;12356;49.386;8.688;2023-10-09T09:45:36;18.40;20.80
24217;DHT22;12356;49.386;8.688;2023-10-09T09:48:07;18.50;20.30
24217;DHT22;12356;49.386;8.688;2023-10-09T09:50:40;18.50;20.90
24217;DHT22;12356;49.386;8.688;2023-10-09T09:53:15;18.50;20.90
24217;DHT22;12356;49.386;8.688;2023-10-09T09:55:54;18.60;21.70
24217;DHT22;12356;49.386;8.688;2023-10-09T09:58:27;18.60;21.00
24217;DHT22;12356;49.386;8.688;2023-10-09T10:01:03;18.60;20.70
24217;DHT22;12356;49.386;8.688;2023-10-09T10:03:50;18.60;20.40
24217;DHT22;12356;49.386;8.688;2023-10-09T10:06:23;18.70;20.90
24217;DHT22;12356;49.386;8.688;2023-10-09T10:08:56;18.70;21.60
24217;DHT22;12356;49.386;8.688;2023-10-09T10:11:47;18.70;21.80
24217;DHT22;12356;49.386;8.688;2023-10-09T10:14:22;18.70;21.30
24217;DHT22;12356;49.386;8.688;2023-10-09T10:17:06;18.80;21.40
24217;DHT22;12356;49.386;8.688;2023-10-09T10:22:46;18.80;21.30
24217;DHT22;12356;49.386;8.688;2023-10-09T10:30:46;18.80;20.50
24217;DHT22;12356;49.386;8.688;2023-10-09T10:33:17;18.90;21.00
24217;DHT22;12356;49.386;8.688;2023-10-09T10:35:48;18.90;23.30
24217;DHT22;12356;49.386;8.688;2023-10-09T10:38:33;18.90;24.00
24217;DHT22;12356;49.386;8.688;2023-10-09T10:41:18;18.90;24.00
24217;DHT22;12356;49.386;8.688;2023-10-09T10:43:52;18.90;25.10
24217;DHT22;12356;49.386;8.688;2023-10-09T10:46:23;18.90;24.80
24217;DHT22;12356;49.386;8.688;2023-10-09T10:49:00;18.90;24.50
24217;DHT22;12356;49.386;8.688;2023-10-09T10:51:45;18.90;23.60
24217;DHT22;12356;49.386;8.688;2023-10-09T10:54:23;18.90;26.10
24217;DHT22;12356;49.386;8.688;2023-10-09T10:57:20;19.00;28.50
24217;DHT22;12356;49.386;8.688;2023-10-09T11:00:00;19.00;29.20
24217;DHT22;12356;49.386;8.688;2023-10-09T11:02:45;19.10;28.50
24217;DHT22;12356;49.386;8.688;2023-10-09T11:05:18;19.10;27.20
24217;DHT22;12356;49.386;8.688;2023-10-09T11:07:58;19.10;25.20
24217;DHT22;12356;49.386;8.688;2023-10-09T11:10:29;19.10;26.20
24217;DHT22;12356;49.386;8.688;2023-10-09T11:13:02;19.20;25.00
24217;DHT22;12356;49.386;8.688;2023-10-09T11:15:39;19.20;24.70
24217;DHT22;12356;49.386;8.688;2023-10-09T11:18:27;19.20;24.20
24217;DHT22;12356;49.386;8.688;2023-10-09T11:20:58;19.20;24.20
24217;DHT22;12356;49.386;8.688;2023-10-09T11:23:35;19.30;23.60
24217;DHT22;12356;49.386;8.688;2023-10-09T11:26:07;19.40;25.00
24217;DHT22;12356;49.386;8.688;2023-10-09T11:29:06;19.40;23.60
24217;DHT22;12356;49.386;8.688;2023-10-09T11:32:00;19.40;24.30
24217;DHT22;12356;49.386;8.688;2023-10-09T11:34:32;19.50;22.80
24217;DHT22;12356;49.386;8.688;2023-10-09T11:39:41;19.60;21.90
24217;DHT22;12356;49.386;8.688;2023-10-09T11:42:23;19.60;19.80
24217;DHT22;12356;49.386;8.688;2023-10-09T11:45:18;19.70;20.20
24217;DHT22;12356;49.386;8.688;2023-10-09T11:47:58;19.70;20.10
24217;DHT22;12356;49.386;8.688;2023-10-09T11:50:52;19.70;19.80
24217;DHT22;12356;49.386;8.688;2023-10-09T11:53:25;19.70;19.80
24217;DHT22;12356;49.386;8.688;2023-10-09T11:55:59;19.80;19.80
24217;DHT22;12356;49.386;8.688;2023-10-09T11:58:30;19.80;19.50
24217;DHT22;12356;49.386;8.688;2023-10-09T12:01:11;19.90;19.50
24217;DHT22;12356;49.386;8.688;2023-10-09T12:03:46;19.80;19.00
24217;DHT22;12356;49.386;8.688;2023-10-09T12:06:21;19.90;19.40
24217;DHT22;12356;49.386;8.688;2023-10-09T12:09:02;19.90;19.40
24217;DHT22;12356;49.386;8.688;2023-10-09T12:11:36;20.00;19.80
24217;DHT22;12356;49.386;8.688;2023-10-09T12:14:07;20.00;18.60
24217;DHT22;12356;49.386;8.688;2023-10-09T12:16:37;20.00;15.90
24217;DHT22;12356;49.386;8.688;2023-10-09T12:19:11;20.10;16.20
24217;DHT22;12356;49.386;8.688;2023-10-09T12:21:41;20.10;14.70
24217;DHT22;12356;49.386;8.688;2023-10-09T12:24:13;20.20;14.40
24217;DHT22;12356;49.386;8.688;2023-10-09T12:26:44;20.20;13.40
24217;DHT22;12356;49.386;8.688;2023-10-09T12:29:16;20.20;13.90
24217;DHT22;12356;49.386;8.688;2023-10-09T12:31:46;20.30;14.10
24217;DHT22;12356;49.386;8.688;2023-10-09T12:34:17;20.30;12.30
24217;DHT22;12356;49.386;8.688;2023-10-09T12:36:47;20.40;12.40
24217;DHT22;12356;49.386;8.688;2023-10-09T12:39:23;20.40;12.70
24217;DHT22;12356;49.386;8.688;2023-10-09T12:41:53;20.50;11.00
24217;DHT22;12356;49.386;8.688;2023-10-09T12:44:24;20.50;11.50
24217;DHT22;12356;49.386;8.688;2023-10-09T12:46:57;20.60;10.00
24217;DHT22;12356;49.386;8.688;2023-10-09T12:49:28;20.70;7.80
24217;DHT22;12356;49.386;8.688;2023-10-09T12:51:58;20.70;8.40
24217;DHT22;12356;49.386;8.688;2023-10-09T12:54:29;20.80;7.20
24217;DHT22;12356;49.386;8.688;2023-10-09T12:57:00;20.90;7.40
24217;DHT22;12356;49.386;8.688;2023-10-09T12:59:31;20.90;4.00
24217;DHT22;12356;49.386;8.688;2023-10-09T13:02:01;21.00;2.40
24217;DHT22;12356;49.386;8.688;2023-10-09T13:04:36;21.10;2.00
24217;DHT22;12356;49.386;8.688;2023-10-09T13:07:11;21.10;3.60
24217;DHT22;12356;49.386;8.688;2023-10-09T13:09:43;21.10;4.00
24217;DHT22;12356;49.386;8.688;2023-10-09T13:12:13;21.20;4.50
24217;DHT22;12356;49.386;8.688;2023-10-09T13:14:48;21.20;4.00
24217;DHT22;12356;49.386;8.688;2023-10-09T13:17:20;21.20;4.00
24217;DHT22;12356;49.386;8.688;2023-10-09T13:19:52;21.30;2.80
24217;DHT22;12356;49.386;8.688;2023-10-09T13:22:23;21.30;1.20
24217;DHT22;12356;49.386;8.688;2023-10-09T13:24:53;21.40;3.00
24217;DHT22;12356;49.386;8.688;2023-10-09T13:27:33;21.40;3.50
24217;DHT22;12356;49.386;8.688;2023-10-09T13:30:05;21.40;3.00
24217;DHT22;12356;49.386;8.688;2023-10-09T13:32:36;21.40;2.80
24217;DHT22;12356;49.386;8.688;2023-10-09T13:35:07;21.50;1.50
24217;DHT22;12356;49.386;8.688;2023-10-09T13:37:38;21.50;1.30
24217;DHT22;12356;49.386;8.688;2023-10-09T13:40:08;21.60;2.30
24217;DHT22;12356;49.386;8.688;2023-10-09T13:42:41;21.60;1.80
24217;DHT22;12356;49.386;8.688;2023-10-09T13:45:12;21.60;1.50
24217;DHT22;12356;49.386;8.688;2023-10-09T13:47:46;21.60;1.40
24217;DHT22;12356;49.386;8.688;2023-10-09T13:50:17;21.60;1.00
24217;DHT22;12356;49.386;8.688;2023-10-09T13:52:52;21.60;1.00
24217;DHT22;12356;49.386;8.688;2023-10-09T13:55:24;21.60;1.00
24217;DHT22;12356;49.386;8.688;2023-10-09T13:58:01;21.60;1.30
24217;DHT22;12356;49.386;8.688;2023-10-09T14:00:32;21.60;1.10
24217;DHT22;12356;49.386;8.688;2023-10-09T14:03:04;21.50;1.00
24217;DHT22;12356;49.386;8.688;2023-10-09T14:05:43;21.60;1.00
24217;DHT22;12356;49.386;8.688;2023-10-09T14:08:24;21.60;1.00
24217;DHT22;12356;49.386;8.688;2023-10-09T14:10:56;21.60;1.00
24217;DHT22;12356;49.386;8.688;2023-10-09T14:13:27;21.60;1.00
24217;DHT22;12356;49.386;8.688;2023-10-09T14:15:58;21.60;1.00
24217;DHT22;12356;49.386;8.688;2023-10-09T14:18:32;21.60;1.00
24217;DHT22;12356;49.386;8.688;2023-10-09T14:21:03;21.60;1.00
24217;DHT22;12356;49.386;8.688;2023-10-09T14:23:46;21.70;1.00
24217;DHT22;12356;49.386;8.688;2023-10-09T14:26:18;21.70;1.00
24217;DHT22;12356;49.386;8.688;2023-10-09T14:28:49;21.70;1.70
24217;DHT22;12356;49.386;8.688;2023-10-09T14:31:20;21.70;1.90
24217;DHT22;12356;49.386;8.688;2023-10-09T14:33:57;21.70;2.50
24217;DHT22;12356;49.386;8.688;2023-10-09T14:36:27;21.70;1.90
24217;DHT22;12356;49.386;8.688;2023-10-09T14:39:04;21.80;1.00
24217;DHT22;12356;49.386;8.688;2023-10-09T14:41:35;21.80;1.30
24217;DHT22;12356;49.386;8.688;2023-10-09T14:44:05;21.80;2.00
24217;DHT22;12356;49.386;8.688;2023-10-09T14:46:36;21.80;2.20
24217;DHT22;12356;49.386;8.688;2023-10-09T14:49:07;21.80;1.60
24217;DHT22;12356;49.386;8.688;2023-10-09T14:51:37;21.80;2.20
24217;DHT22;12356;49.386;8.688;2023-10-09T14:54:08;21.80;2.20
24217;DHT22;12356;49.386;8.688;2023-10-09T14:56:38;21.70;2.20
24217;DHT22;12356;49.386;8.688;2023-10-09T14:59:11;21.80;2.10
24217;DHT22;12356;49.386;8.688;2023-10-09T15:01:42;21.70;2.30
24217;DHT22;12356;49.386;8.688;2023-10-09T15:04:12;21.70;2.80
24217;DHT22;12356;49.386;8.688;2023-10-09T15:06:45;21.70;1.50
24217;DHT22;12356;49.386;8.688;2023-10-09T15:09:19;21.70;1.00
24217;DHT22;12356;49.386;8.688;2023-10-09T15:11:54;21.70;1.00
24217;DHT22;12356;49.386;8.688;2023-10-09T15:14:24;21.70;1.80
24217;DHT22;12356;49.386;8.688;2023-10-09T15:16:55;21.60;2.30
24217;DHT22;12356;49.386;8.688;2023-10-09T15:19:26;21.60;2.10
24217;DHT22;12356;49.386;8.688;2023-10-09T15:22:00;21.60;2.50
24217;DHT22;12356;49.386;8.688;2023-10-09T15:24:30;21.60;3.20
24217;DHT22;12356;49.386;8.688;2023-10-09T15:27:01;21.50;2.30
24217;DHT22;12356;49.386;8.688;2023-10-09T15:29:31;21.50;1.70
24217;DHT22;12356;49.386;8.688;2023-10-09T15:32:03;21.50;1.80
24217;DHT22;12356;49.386;8.688;2023-10-09T15:34:44;21.50;3.50
24217;DHT22;12356;49.386;8.688;2023-10-09T15:37:15;21.40;4.70
24217;DHT22;12356;49.386;8.688;2023-10-09T15:39:48;21.40;2.00
24217;DHT22;12356;49.386;8.688;2023-10-09T15:42:20;21.40;1.00
24217;DHT22;12356;49.386;8.688;2023-10-09T15:44:52;21.40;1.00
24217;DHT22;12356;49.386;8.688;2023-10-09T15:47:25;21.30;1.00
24217;DHT22;12356;49.386;8.688;2023-10-09T15:49:55;21.30;1.00
24217;DHT22;12356;49.386;8.688;2023-10-09T15:52:26;21.30;2.70
24217;DHT22;12356;49.386;8.688;2023-10-09T15:54:58;21.30;3.50
24217;DHT22;12356;49.386;8.688;2023-10-09T15:57:28;21.20;3.80
24217;DHT22;12356;49.386;8.688;2023-10-09T16:00:01;21.20;3.90
24217;DHT22;12356;49.386;8.688;2023-10-09T16:02:31;21.10;3.30
24217;DHT22;12356;49.386;8.688;2023-10-09T16:05:02;21.10;3.40
24217;DHT22;12356;49.386;8.688;2023-10-09T16:07:36;21.00;4.10
24217;DHT22;12356;49.386;8.688;2023-10-09T16:10:08;21.00;7.00
24217;DHT22;12356;49.386;8.688;2023-10-09T16:12:40;20.90;6.70
24217;DHT22;12356;49.386;8.688;2023-10-09T16:15:13;20.90;6.40
24217;DHT22;12356;49.386;8.688;2023-10-09T16:17:48;20.90;6.80
24217;DHT22;12356;49.386;8.688;2023-10-09T16:20:19;20.80;8.00
24217;DHT22;12356;49.386;8.688;2023-10-09T16:22:56;20.80;8.30
24217;DHT22;12356;49.386;8.688;2023-10-09T16:25:26;20.70;8.70
24217;DHT22;12356;49.386;8.688;2023-10-09T16:27:57;20.70;8.80
24217;DHT22;12356;49.386;8.688;2023-10-09T16:30:29;20.60;7.70
24217;DHT22;12356;49.386;8.688;2023-10-09T16:33:00;20.60;8.50
24217;DHT22;12356;49.386;8.688;2023-10-09T16:35:31;20.50;9.30
24217;DHT22;12356;49.386;8.688;2023-10-09T16:38:04;20.50;9.50
24217;DHT22;12356;49.386;8.688;2023-10-09T16:40:42;20.40;10.00
24217;DHT22;12356;49.386;8.688;2023-10-09T16:43:22;20.40;11.70
24217;DHT22;12356;49.386;8.688;2023-10-09T16:45:56;20.40;11.90